createdAt,value
2023-02-23T00:00:34.432Z,13.40
2023-02-23T00:01:34.402Z,13.10
2023-02-23T00:02:34.497Z,13.00
2023-02-23T00:03:34.455Z,13.10
2023-02-23T00:04:34.377Z,13.20
2023-02-23T00:05:34.386Z,13.20
2023-02-23T00:06:34.386Z,13.10
2023-02-23T00:07:34.336Z,13.20
2023-02-23T00:08:34.320Z,13.10
2023-02-23T00:09:34.310Z,13.10
2023-02-23T00:10:34.318Z,13.50
2023-02-23T00:11:34.291Z,13.30
2023-02-23T00:12:34.312Z,13.30
2023-02-23T00:13:34.274Z,13.20
2023-02-23T00:14:34.263Z,13.20
2023-02-23T00:15:34.271Z,13.00
2023-02-23T00:16:34.291Z,13.20
2023-02-23T00:17:34.229Z,13.10
2023-02-23T00:18:34.217Z,13.00
2023-02-23T00:19:34.201Z,13.10
2023-02-23T00:20:34.233Z,12.90
2023-02-23T00:21:34.194Z,13.20
2023-02-23T00:22:34.171Z,13.00
2023-02-23T00:23:34.174Z,13.20
2023-02-23T00:24:34.150Z,13.10
2023-02-23T00:25:34.149Z,13.10
2023-02-23T00:26:34.143Z,13.00
2023-02-23T00:27:34.116Z,13.20
2023-02-23T00:28:34.145Z,13.20
2023-02-23T00:29:34.098Z,13.20
2023-02-23T00:30:34.132Z,13.20
2023-02-23T00:31:34.271Z,13.10
2023-02-23T00:32:34.294Z,13.20
2023-02-23T00:33:34.065Z,13.20
2023-02-23T00:34:34.042Z,13.10
2023-02-23T00:35:34.081Z,13.10
2023-02-23T00:36:34.029Z,13.10
2023-02-23T00:37:34.013Z,13.10
2023-02-23T00:38:34.000Z,13.20
2023-02-23T00:39:33.992Z,12.90
2023-02-23T00:40:34.003Z,13.00
2023-02-23T00:41:33.976Z,13.10
2023-02-23T00:42:33.958Z,12.90
2023-02-23T00:43:33.968Z,13.10
2023-02-23T00:44:33.997Z,12.80
2023-02-23T00:45:33.969Z,13.10
2023-02-23T00:46:33.918Z,12.90
2023-02-23T00:47:33.905Z,13.00
2023-02-23T00:48:33.897Z,13.20
2023-02-23T00:49:33.884Z,12.80
2023-02-23T00:50:33.888Z,13.00
2023-02-23T00:51:33.864Z,13.00
2023-02-23T00:52:33.853Z,13.10
2023-02-23T00:53:33.845Z,12.90
2023-02-23T00:54:33.830Z,13.20
2023-02-23T00:55:33.845Z,13.10
2023-02-23T00:56:33.812Z,12.80
2023-02-23T00:57:33.801Z,13.00
2023-02-23T00:58:33.789Z,12.90
2023-02-23T00:59:33.777Z,12.90
2023-02-23T01:00:33.810Z,12.80
2023-02-23T01:01:33.817Z,12.80
2023-02-23T01:02:33.776Z,12.70
2023-02-23T01:03:33.759Z,12.90
2023-02-23T01:04:33.724Z,12.80
2023-02-23T01:05:33.714Z,12.90
2023-02-23T01:06:33.710Z,13.10
2023-02-23T01:07:33.690Z,12.90
2023-02-23T01:08:33.699Z,12.90
2023-02-23T01:09:33.666Z,12.80
2023-02-23T01:10:33.659Z,12.90
2023-02-23T01:11:33.670Z,12.90
2023-02-23T01:12:33.630Z,12.80
2023-02-23T01:13:33.659Z,12.80
2023-02-23T01:14:33.613Z,12.80
2023-02-23T01:15:33.665Z,12.80
2023-02-23T01:16:33.619Z,12.80
2023-02-23T01:17:33.581Z,13.00
2023-02-23T01:18:33.565Z,13.00
2023-02-23T01:19:33.558Z,12.90
2023-02-23T01:20:33.557Z,12.90
2023-02-23T01:21:33.540Z,12.90
2023-02-23T01:22:33.522Z,12.80
2023-02-23T01:23:33.515Z,13.10
2023-02-23T01:24:33.503Z,12.90
2023-02-23T01:25:33.511Z,12.90
2023-02-23T01:26:33.485Z,13.00
2023-02-23T01:27:33.469Z,12.80
2023-02-23T01:28:33.458Z,12.90
2023-02-23T01:29:33.447Z,12.90
2023-02-23T01:30:33.489Z,13.00
2023-02-23T01:31:33.693Z,12.90
2023-02-23T01:32:33.461Z,12.90
2023-02-23T01:33:33.411Z,12.90
2023-02-23T01:34:33.399Z,12.70
2023-02-23T01:35:33.433Z,12.90
2023-02-23T01:36:33.375Z,12.90
2023-02-23T01:37:33.364Z,12.70
2023-02-23T01:38:33.357Z,12.90
2023-02-23T01:39:33.340Z,12.70
2023-02-23T01:40:33.353Z,12.80
2023-02-23T01:41:33.321Z,12.80
2023-02-23T01:42:33.310Z,12.90
2023-02-23T01:43:33.297Z,12.80
2023-02-23T01:44:33.285Z,12.80
2023-02-23T01:45:33.296Z,13.00
2023-02-23T01:46:33.300Z,13.00
2023-02-23T01:47:33.253Z,13.00
2023-02-23T01:48:33.267Z,13.00
2023-02-23T01:49:33.236Z,12.90
2023-02-23T01:50:33.232Z,12.90
2023-02-23T01:51:33.212Z,13.10
2023-02-23T01:52:33.208Z,13.00
2023-02-23T01:53:33.205Z,12.90
2023-02-23T01:54:33.189Z,12.90
2023-02-23T01:55:33.186Z,12.80
2023-02-23T01:56:33.155Z,12.80
2023-02-23T01:57:33.150Z,12.80
2023-02-23T01:58:33.133Z,12.80
2023-02-23T01:59:33.127Z,12.80
2023-02-23T02:00:33.142Z,12.70
2023-02-23T02:01:33.142Z,13.00
2023-02-23T02:02:33.097Z,12.80
2023-02-23T02:03:33.082Z,13.00
2023-02-23T02:04:33.093Z,12.90
2023-02-23T02:05:33.082Z,12.90
2023-02-23T02:06:33.053Z,12.90
2023-02-23T02:07:33.048Z,12.80
2023-02-23T02:08:33.058Z,12.80
2023-02-23T02:09:33.036Z,12.90
2023-02-23T02:10:33.006Z,12.80
2023-02-23T02:11:32.997Z,12.90
2023-02-23T02:12:32.991Z,12.90
2023-02-23T02:13:32.977Z,12.90
2023-02-23T02:14:32.974Z,13.10
2023-02-23T02:15:32.952Z,13.00
2023-02-23T02:16:32.946Z,13.10
2023-02-23T02:17:32.939Z,12.80
2023-02-23T02:18:32.921Z,12.90
2023-02-23T02:19:32.948Z,12.80
2023-02-23T02:20:33.250Z,12.90
2023-02-23T02:21:32.896Z,12.90
2023-02-23T02:22:32.877Z,12.80
2023-02-23T02:23:32.870Z,13.00
2023-02-23T02:24:32.860Z,12.90
2023-02-23T02:25:32.865Z,12.80
2023-02-23T02:26:32.837Z,12.70
2023-02-23T02:27:32.827Z,13.00
2023-02-23T02:28:32.825Z,12.80
2023-02-23T02:29:32.804Z,12.90
2023-02-23T02:30:32.824Z,12.90
2023-02-23T02:31:32.795Z,12.90
2023-02-23T02:32:32.770Z,12.80
2023-02-23T02:33:32.766Z,12.90
2023-02-23T02:34:32.750Z,12.90
2023-02-23T02:35:32.756Z,12.70
2023-02-23T02:36:32.746Z,12.90
2023-02-23T02:37:32.719Z,12.90
2023-02-23T02:38:32.710Z,12.80
2023-02-23T02:39:32.702Z,12.90
2023-02-23T02:40:32.700Z,12.90
2023-02-23T02:41:32.681Z,13.00
2023-02-23T02:42:32.663Z,12.90
2023-02-23T02:43:32.657Z,12.80
2023-02-23T02:44:32.664Z,12.80
2023-02-23T02:45:32.655Z,12.70
2023-02-23T02:46:32.625Z,12.80
2023-02-23T02:47:32.610Z,12.90
2023-02-23T02:48:32.600Z,12.80
2023-02-23T02:49:32.591Z,12.90
2023-02-23T02:50:32.603Z,12.90
2023-02-23T02:51:32.571Z,12.90
2023-02-23T02:52:32.587Z,12.80
2023-02-23T02:53:32.556Z,12.90
2023-02-23T02:54:32.535Z,12.70
2023-02-23T02:55:32.547Z,13.00
2023-02-23T02:56:32.543Z,12.80
2023-02-23T02:57:32.503Z,12.80
2023-02-23T02:58:32.495Z,13.00
2023-02-23T02:59:32.481Z,12.80
2023-02-23T03:00:32.493Z,12.70
2023-02-23T03:01:32.496Z,12.70
2023-02-23T03:02:32.450Z,12.50
2023-02-23T03:03:32.449Z,12.70
2023-02-23T03:04:32.427Z,12.80
2023-02-23T03:05:32.440Z,12.70
2023-02-23T03:06:32.412Z,12.90
2023-02-23T03:07:32.403Z,12.80
2023-02-23T03:08:32.401Z,12.80
2023-02-23T03:09:32.412Z,12.80
2023-02-23T03:10:32.369Z,13.00
2023-02-23T03:11:32.400Z,12.90
2023-02-23T03:12:32.343Z,12.80
2023-02-23T03:13:32.339Z,12.90
2023-02-23T03:14:32.324Z,13.40
2023-02-23T03:15:32.316Z,12.80
2023-02-23T03:16:32.322Z,12.80
2023-02-23T03:17:32.295Z,13.00
2023-02-23T03:18:32.324Z,12.80
2023-02-23T03:19:32.277Z,12.90
2023-02-23T03:20:32.258Z,12.80
2023-02-23T03:21:32.277Z,13.00
2023-02-23T03:22:32.235Z,12.90
2023-02-23T03:23:32.229Z,13.20
2023-02-23T03:24:32.354Z,13.20
2023-02-23T03:25:32.205Z,13.10
2023-02-23T03:26:32.204Z,13.10
2023-02-23T03:27:32.182Z,12.90
2023-02-23T03:28:32.169Z,12.80
2023-02-23T03:29:32.162Z,12.80
2023-02-23T03:30:32.228Z,12.70
2023-02-23T03:31:32.287Z,12.80
2023-02-23T03:32:32.228Z,12.80
2023-02-23T03:33:32.116Z,14.00
2023-02-23T03:34:32.108Z,13.00
2023-02-23T03:35:32.098Z,13.10
2023-02-23T03:36:32.099Z,13.90
2023-02-23T03:37:32.074Z,12.90
2023-02-23T03:38:32.063Z,13.00
2023-02-23T03:39:32.053Z,12.60
2023-02-23T03:40:32.080Z,12.80
2023-02-23T03:41:32.067Z,12.80
2023-02-23T03:42:32.024Z,12.90
2023-02-23T03:43:32.013Z,13.40
2023-02-23T03:44:32.004Z,13.20
2023-02-23T03:45:32.045Z,12.90
2023-02-23T03:46:32.010Z,13.30
2023-02-23T03:47:31.973Z,13.60
2023-02-23T03:48:31.967Z,12.80
2023-02-23T03:49:31.953Z,12.80
2023-02-23T03:50:31.932Z,13.00
2023-02-23T03:51:31.950Z,13.40
2023-02-23T03:52:31.916Z,12.90
2023-02-23T03:53:31.904Z,13.10
2023-02-23T03:54:31.902Z,12.80
2023-02-23T03:55:31.881Z,13.40
2023-02-23T03:56:31.918Z,13.00
2023-02-23T03:57:31.859Z,12.70
2023-02-23T03:58:31.846Z,12.70
2023-02-23T03:59:31.847Z,12.90
2023-02-23T04:00:31.823Z,12.60
2023-02-23T04:01:31.826Z,12.80
2023-02-23T04:02:31.806Z,13.20
2023-02-23T04:03:31.803Z,14.00
2023-02-23T04:04:31.783Z,13.10
2023-02-23T04:05:31.779Z,12.60
2023-02-23T04:06:31.770Z,13.00
2023-02-23T04:07:31.763Z,13.40
2023-02-23T04:08:31.759Z,12.70
2023-02-23T04:09:31.727Z,12.60
2023-02-23T04:10:31.712Z,12.60
2023-02-23T04:11:31.731Z,12.60
2023-02-23T04:12:31.716Z,12.70
2023-02-23T04:13:31.685Z,13.10
2023-02-23T04:14:31.674Z,12.60
2023-02-23T04:15:31.658Z,13.20
2023-02-23T04:16:31.713Z,14.10
2023-02-23T04:17:31.642Z,12.80
2023-02-23T04:18:31.632Z,12.60
2023-02-23T04:19:31.616Z,12.50
2023-02-23T04:20:31.625Z,12.50
2023-02-23T04:21:31.611Z,12.90
2023-02-23T04:22:31.615Z,12.80
2023-02-23T04:23:31.587Z,12.60
2023-02-23T04:24:31.562Z,12.90
2023-02-23T04:25:31.563Z,13.60
2023-02-23T04:26:31.568Z,13.10
2023-02-23T04:27:31.532Z,12.80
2023-02-23T04:28:31.661Z,12.90
2023-02-23T04:29:31.512Z,12.90
2023-02-23T04:30:31.529Z,12.80
2023-02-23T04:31:31.574Z,13.30
2023-02-23T04:32:31.615Z,12.80
2023-02-23T04:33:31.469Z,12.80
2023-02-23T04:34:31.468Z,13.20
2023-02-23T04:35:31.520Z,12.70
2023-02-23T04:36:31.467Z,13.50
2023-02-23T04:37:31.425Z,13.80
2023-02-23T04:38:31.416Z,13.80
2023-02-23T04:39:31.404Z,13.60
2023-02-23T04:40:31.436Z,12.70
2023-02-23T04:41:31.413Z,12.90
2023-02-23T04:42:31.372Z,13.50
2023-02-23T04:43:31.364Z,13.40
2023-02-23T04:44:31.375Z,12.70
2023-02-23T04:45:31.341Z,12.70
2023-02-23T04:46:31.364Z,13.70
2023-02-23T04:47:31.348Z,12.70
2023-02-23T04:48:31.310Z,12.50
2023-02-23T04:49:31.294Z,13.10
2023-02-23T04:50:32.565Z,13.80
2023-02-23T04:51:31.310Z,12.60
2023-02-23T04:52:31.269Z,13.00
2023-02-23T04:53:31.258Z,13.20
2023-02-23T04:54:31.242Z,13.00
2023-02-23T04:55:31.235Z,12.90
2023-02-23T04:56:31.237Z,13.00
2023-02-23T04:57:31.210Z,13.20
2023-02-23T04:58:31.202Z,14.60
2023-02-23T04:59:31.188Z,13.00
2023-02-23T05:00:31.231Z,12.80
2023-02-23T05:01:31.230Z,13.10
2023-02-23T05:02:31.158Z,13.10
2023-02-23T05:03:31.145Z,12.80
2023-02-23T05:04:31.176Z,13.60
2023-02-23T05:05:31.133Z,12.80
2023-02-23T05:06:31.155Z,13.50
2023-02-23T05:07:31.117Z,13.30
2023-02-23T05:08:31.096Z,13.90
2023-02-23T05:09:31.081Z,14.20
2023-02-23T05:10:31.080Z,13.00
2023-02-23T05:11:31.084Z,13.30
2023-02-23T05:12:31.074Z,12.90
2023-02-23T05:13:31.041Z,13.90
2023-02-23T05:14:31.028Z,14.40
2023-02-23T05:15:31.141Z,12.90
2023-02-23T05:16:31.029Z,13.10
2023-02-23T05:17:31.039Z,13.30
2023-02-23T05:18:30.988Z,13.10
2023-02-23T05:19:30.979Z,15.10
2023-02-23T05:20:30.968Z,13.10
2023-02-23T05:21:30.995Z,13.20
2023-02-23T05:22:30.947Z,13.70
2023-02-23T05:23:30.961Z,13.70
2023-02-23T05:24:30.952Z,13.80
2023-02-23T05:25:30.912Z,13.00
2023-02-23T05:26:30.910Z,13.40
2023-02-23T05:27:30.895Z,13.30
2023-02-23T05:28:30.880Z,13.10
2023-02-23T05:29:30.865Z,13.40
2023-02-23T05:30:30.906Z,14.50
2023-02-23T05:31:31.019Z,13.50
2023-02-23T05:32:30.915Z,13.10
2023-02-23T05:33:30.829Z,13.40
2023-02-23T05:34:30.818Z,13.50
2023-02-23T05:35:30.798Z,13.40
2023-02-23T05:36:30.810Z,13.50
2023-02-23T05:37:30.812Z,13.30
2023-02-23T05:38:30.770Z,13.80
2023-02-23T05:39:30.755Z,13.70
2023-02-23T05:40:30.742Z,13.20
2023-02-23T05:41:30.734Z,13.20
2023-02-23T05:42:30.769Z,13.20
2023-02-23T05:43:30.741Z,13.30
2023-02-23T05:44:30.707Z,14.40
2023-02-23T05:45:30.689Z,13.60
2023-02-23T05:46:30.734Z,13.40
2023-02-23T05:47:30.721Z,14.30
2023-02-23T05:48:30.715Z,14.80
2023-02-23T05:49:30.648Z,13.80
2023-02-23T05:50:30.638Z,13.90
2023-02-23T05:51:30.622Z,13.60
2023-02-23T05:52:30.654Z,13.90
2023-02-23T05:53:30.600Z,13.90
2023-02-23T05:54:30.591Z,14.10
2023-02-23T05:55:30.576Z,14.80
2023-02-23T05:56:30.569Z,14.20
2023-02-23T05:57:30.623Z,13.90
2023-02-23T05:58:30.550Z,13.80
2023-02-23T05:59:30.537Z,13.80
2023-02-23T06:00:30.530Z,13.90
2023-02-23T06:01:30.520Z,14.20
2023-02-23T06:02:30.539Z,13.40
2023-02-23T06:03:30.550Z,14.00
2023-02-23T06:04:30.500Z,14.20
2023-02-23T06:05:30.473Z,13.60
2023-02-23T06:06:30.464Z,14.70
2023-02-23T06:07:30.486Z,14.10
2023-02-23T06:08:30.445Z,13.60
2023-02-23T06:09:30.448Z,14.20
2023-02-23T06:10:30.421Z,13.70
2023-02-23T06:11:30.409Z,13.80
2023-02-23T06:12:30.421Z,13.90
2023-02-23T06:13:30.388Z,13.70
2023-02-23T06:14:30.376Z,14.50
2023-02-23T06:15:30.376Z,14.10
2023-02-23T06:16:30.498Z,14.00
2023-02-23T06:17:30.355Z,14.20
2023-02-23T06:18:30.351Z,14.40
2023-02-23T06:19:30.319Z,14.10
2023-02-23T06:20:30.328Z,14.20
2023-02-23T06:21:30.308Z,13.90
2023-02-23T06:22:30.318Z,14.70
2023-02-23T06:23:30.282Z,13.60
2023-02-23T06:24:30.275Z,13.50
2023-02-23T06:25:30.263Z,14.80
2023-02-23T06:26:30.247Z,14.60
2023-02-23T06:27:30.252Z,13.70
2023-02-23T06:28:30.223Z,14.20
2023-02-23T06:29:30.223Z,14.30
2023-02-23T06:30:30.225Z,14.00
2023-02-23T06:31:30.198Z,13.80
2023-02-23T06:32:30.325Z,13.40
2023-02-23T06:33:30.172Z,13.40
2023-02-23T06:34:30.166Z,13.70
2023-02-23T06:35:30.156Z,14.20
2023-02-23T06:36:30.209Z,13.80
2023-02-23T06:37:30.146Z,13.80
2023-02-23T06:38:30.125Z,14.10
2023-02-23T06:39:30.104Z,13.50
2023-02-23T06:40:30.096Z,13.90
2023-02-23T06:41:30.083Z,13.80
2023-02-23T06:42:30.098Z,13.20
2023-02-23T06:43:30.076Z,13.90
2023-02-23T06:44:30.056Z,13.60
2023-02-23T06:45:30.043Z,13.50
2023-02-23T06:46:30.054Z,13.70
2023-02-23T06:47:30.018Z,13.90
2023-02-23T06:48:30.033Z,13.70
2023-02-23T06:49:30.003Z,13.50
2023-02-23T06:50:29.992Z,13.60
2023-02-23T06:51:29.989Z,14.50
2023-02-23T06:52:29.982Z,13.90
2023-02-23T06:53:29.977Z,13.80
2023-02-23T06:54:29.942Z,13.90
2023-02-23T06:55:29.931Z,13.90
2023-02-23T06:56:29.924Z,13.80
2023-02-23T06:57:29.944Z,13.60
2023-02-23T06:58:29.903Z,13.30
2023-02-23T06:59:29.888Z,13.50
2023-02-23T07:00:29.884Z,13.80
2023-02-23T07:01:29.879Z,13.80
2023-02-23T07:02:29.899Z,14.60
2023-02-23T07:03:29.854Z,13.50
2023-02-23T07:04:29.834Z,14.10
2023-02-23T07:05:29.820Z,14.50
2023-02-23T07:06:29.810Z,13.60
2023-02-23T07:07:29.835Z,13.60
2023-02-23T07:08:29.827Z,13.80
2023-02-23T07:09:30.753Z,13.50
2023-02-23T07:10:29.793Z,14.30
2023-02-23T07:11:29.758Z,14.60
2023-02-23T07:12:29.781Z,13.60
2023-02-23T07:13:29.732Z,13.80
2023-02-23T07:14:29.740Z,13.90
2023-02-23T07:15:29.718Z,13.80
2023-02-23T07:16:29.827Z,14.60
2023-02-23T07:17:29.716Z,14.10
2023-02-23T07:18:29.678Z,14.30
2023-02-23T07:19:29.676Z,13.60
2023-02-23T07:20:29.743Z,14.40
2023-02-23T07:21:29.650Z,15.40
2023-02-23T07:22:29.652Z,13.30
2023-02-23T07:23:29.628Z,13.60
2023-02-23T07:24:29.704Z,13.60
2023-02-23T07:25:29.603Z,13.20
2023-02-23T07:26:29.597Z,13.60
2023-02-23T07:27:29.599Z,14.00
2023-02-23T07:28:29.575Z,13.70
2023-02-23T07:29:29.561Z,13.40
2023-02-23T07:30:29.616Z,13.40
2023-02-23T07:31:29.558Z,13.50
2023-02-23T07:32:29.671Z,14.10
2023-02-23T07:33:29.516Z,14.30
2023-02-23T07:34:29.514Z,13.50
2023-02-23T07:35:29.493Z,13.90
2023-02-23T07:36:29.491Z,13.90
2023-02-23T07:37:29.485Z,13.60
2023-02-23T07:38:29.466Z,13.50
2023-02-23T07:39:29.457Z,13.40
2023-02-23T07:40:29.481Z,13.70
2023-02-23T07:41:29.433Z,13.40
2023-02-23T07:42:29.444Z,13.50
2023-02-23T07:43:29.416Z,13.70
2023-02-23T07:44:29.407Z,13.40
2023-02-23T07:45:29.426Z,13.90
2023-02-23T07:46:29.386Z,13.50
2023-02-23T07:47:29.402Z,14.20
2023-02-23T07:48:29.365Z,13.80
2023-02-23T07:49:29.354Z,13.90
2023-02-23T07:50:29.342Z,13.30
2023-02-23T07:51:29.345Z,13.80
2023-02-23T07:52:29.348Z,14.10
2023-02-23T07:53:29.310Z,14.10
2023-02-23T07:54:29.307Z,13.60
2023-02-23T07:55:29.292Z,13.60
2023-02-23T07:56:29.302Z,13.40
2023-02-23T07:57:29.294Z,13.50
2023-02-23T07:58:29.276Z,14.40
2023-02-23T07:59:29.245Z,14.60
2023-02-23T08:00:29.232Z,13.60
2023-02-23T08:01:29.290Z,13.70
2023-02-23T08:02:29.219Z,14.50
2023-02-23T08:03:29.271Z,13.60
2023-02-23T08:04:29.286Z,14.00
2023-02-23T08:05:29.188Z,13.90
2023-02-23T08:06:29.171Z,14.20
2023-02-23T08:07:29.189Z,13.50
2023-02-23T08:08:29.147Z,13.80
2023-02-23T08:09:29.137Z,13.80
2023-02-23T08:10:29.128Z,13.50
2023-02-23T08:11:29.124Z,13.90
2023-02-23T08:12:29.185Z,13.60
2023-02-23T08:13:29.107Z,13.60
2023-02-23T08:14:29.097Z,14.00
2023-02-23T08:15:29.071Z,14.40
2023-02-23T08:16:29.108Z,13.80
2023-02-23T08:17:29.117Z,13.90
2023-02-23T08:18:29.115Z,14.20
2023-02-23T08:19:29.027Z,14.10
2023-02-23T08:20:29.015Z,14.30
2023-02-23T08:21:29.009Z,14.00
2023-02-23T08:22:31.839Z,14.00
2023-02-23T08:23:29.983Z,13.80
2023-02-23T08:24:28.976Z,13.70
2023-02-23T08:25:28.967Z,13.80
2023-02-23T08:26:28.951Z,15.00
2023-02-23T08:27:29.132Z,13.80
2023-02-23T08:28:28.966Z,13.80
2023-02-23T08:29:28.932Z,13.90
2023-02-23T08:30:28.982Z,14.10
2023-02-23T08:31:29.036Z,13.70
2023-02-23T08:32:28.953Z,13.80
2023-02-23T08:33:28.880Z,14.00
2023-02-23T08:34:28.862Z,13.70
2023-02-23T08:35:28.855Z,13.50
2023-02-23T08:36:28.842Z,13.90
2023-02-23T08:37:28.848Z,13.80
2023-02-23T08:38:28.819Z,13.80
2023-02-23T08:39:28.809Z,13.40
2023-02-23T08:40:28.799Z,13.90
2023-02-23T08:41:28.788Z,13.90
2023-02-23T08:42:28.807Z,13.50
2023-02-23T08:43:28.768Z,13.70
2023-02-23T08:44:28.779Z,14.20
2023-02-23T08:45:28.746Z,13.60
2023-02-23T08:46:28.790Z,13.40
2023-02-23T08:47:28.796Z,13.30
2023-02-23T08:48:28.733Z,13.70
2023-02-23T08:49:28.698Z,13.80
2023-02-23T08:50:28.763Z,14.00
2023-02-23T08:51:28.701Z,13.60
2023-02-23T08:52:28.720Z,13.70
2023-02-23T08:53:28.656Z,13.60
2023-02-23T08:54:28.649Z,14.20
2023-02-23T08:55:28.631Z,13.60
2023-02-23T08:56:28.614Z,13.60
2023-02-23T08:57:28.632Z,14.00
2023-02-23T08:58:28.593Z,14.50
2023-02-23T08:59:28.613Z,13.80
2023-02-23T09:00:28.601Z,13.50
2023-02-23T09:01:28.620Z,14.20
2023-02-23T09:02:28.583Z,13.30
2023-02-23T09:03:28.668Z,13.70
2023-02-23T09:04:28.544Z,13.30
2023-02-23T09:05:28.537Z,13.80
2023-02-23T09:06:28.504Z,13.70
2023-02-23T09:07:28.511Z,13.80
2023-02-23T09:08:28.481Z,13.40
2023-02-23T09:09:28.486Z,13.40
2023-02-23T09:10:28.459Z,14.00
2023-02-23T09:11:28.466Z,14.70
2023-02-23T09:12:28.465Z,13.50
2023-02-23T09:13:28.426Z,13.50
2023-02-23T09:14:28.425Z,13.60
2023-02-23T09:15:28.412Z,14.00
2023-02-23T09:16:28.426Z,13.60
2023-02-23T09:17:28.518Z,13.40
2023-02-23T09:18:28.377Z,14.10
2023-02-23T09:19:28.377Z,13.50
2023-02-23T09:20:28.352Z,13.80
2023-02-23T09:21:28.343Z,13.60
2023-02-23T09:22:28.327Z,13.70
2023-02-23T09:23:28.317Z,13.60
2023-02-23T09:24:28.323Z,13.40
2023-02-23T09:25:28.300Z,14.20
2023-02-23T09:26:28.287Z,14.40
2023-02-23T09:27:28.296Z,13.40
2023-02-23T09:28:29.730Z,13.50
2023-02-23T09:29:28.254Z,13.70
2023-02-23T09:30:28.343Z,13.90
2023-02-23T09:31:28.260Z,13.80
2023-02-23T09:32:28.423Z,13.70
2023-02-23T09:33:28.225Z,13.70
2023-02-23T09:34:28.197Z,13.70
2023-02-23T09:35:28.192Z,13.50
2023-02-23T09:36:28.173Z,14.30
2023-02-23T09:37:28.189Z,13.90
2023-02-23T09:38:28.164Z,13.70
2023-02-23T09:39:37.652Z,13.50
2023-02-23T09:40:29.146Z,13.80
2023-02-23T09:41:28.134Z,13.90
2023-02-23T09:42:28.112Z,13.70
2023-02-23T09:43:28.110Z,13.90
2023-02-23T09:44:28.130Z,13.90
2023-02-23T09:45:28.078Z,14.10
2023-02-23T09:46:28.115Z,13.90
2023-02-23T09:47:28.073Z,13.80
2023-02-23T09:48:28.173Z,13.70
2023-02-23T09:49:28.053Z,13.70
2023-02-23T09:50:28.023Z,14.10
2023-02-23T09:51:28.012Z,13.90
2023-02-23T09:52:28.001Z,15.20
2023-02-23T09:53:27.990Z,14.10
2023-02-23T09:54:27.993Z,13.80
2023-02-23T09:55:27.977Z,14.50
2023-02-23T09:56:27.961Z,14.30
2023-02-23T09:57:27.949Z,13.90
2023-02-23T09:58:27.957Z,13.60
2023-02-23T09:59:27.930Z,14.90
2023-02-23T10:00:27.937Z,14.60
2023-02-23T10:01:27.945Z,14.10
2023-02-23T10:02:27.894Z,13.90
2023-02-23T10:03:27.919Z,14.00
2023-02-23T10:04:27.934Z,14.00
2023-02-23T10:05:27.881Z,13.70
2023-02-23T10:06:27.885Z,14.00
2023-02-23T10:07:27.842Z,13.70
2023-02-23T10:08:27.837Z,14.40
2023-02-23T10:09:27.819Z,14.00
2023-02-23T10:10:28.711Z,14.70
2023-02-23T10:11:27.797Z,14.10
2023-02-23T10:12:27.792Z,14.70
2023-02-23T10:13:27.794Z,14.10
2023-02-23T10:14:27.764Z,13.80
2023-02-23T10:15:27.754Z,14.20
2023-02-23T10:16:27.745Z,15.20
2023-02-23T10:17:27.736Z,14.20
2023-02-23T10:18:44.891Z,14.30
2023-02-23T10:19:28.736Z,14.30
2023-02-23T10:20:27.737Z,14.70
2023-02-23T10:21:27.723Z,14.90
2023-02-23T10:22:28.645Z,13.70
2023-02-23T10:23:28.670Z,14.30
2023-02-23T10:24:27.660Z,14.60
2023-02-23T10:25:27.658Z,13.70
2023-02-23T10:26:27.658Z,14.80
2023-02-23T10:27:27.622Z,14.40
2023-02-23T10:28:27.618Z,13.80
2023-02-23T10:29:27.604Z,13.90
2023-02-23T10:30:27.607Z,14.00
2023-02-23T10:31:27.681Z,14.10
2023-02-23T10:32:27.826Z,13.60
2023-02-23T10:33:27.802Z,15.10
2023-02-23T10:34:27.638Z,13.40
2023-02-23T10:35:27.618Z,13.80
2023-02-23T10:36:27.576Z,13.80
2023-02-23T10:37:27.734Z,13.30
2023-02-23T10:38:27.597Z,14.50
2023-02-23T10:39:27.549Z,13.40
2023-02-23T10:40:27.673Z,13.40
2023-02-23T10:41:27.744Z,13.20
2023-02-23T10:42:27.604Z,13.10
2023-02-23T10:43:28.004Z,13.40
2023-02-23T10:44:27.537Z,13.20
2023-02-23T10:45:27.555Z,12.80
2023-02-23T10:46:27.462Z,14.20
2023-02-23T10:47:27.716Z,13.20
2023-02-23T10:48:27.810Z,13.60
2023-02-23T10:49:27.698Z,13.50
2023-02-23T10:50:27.650Z,15.10
2023-02-23T10:51:27.362Z,13.50
2023-02-23T10:52:27.538Z,13.50
2023-02-23T10:53:27.788Z,14.20
2023-02-23T10:54:27.412Z,13.20
2023-02-23T10:55:27.586Z,13.80
2023-02-23T10:56:27.409Z,13.90
2023-02-23T10:57:27.773Z,13.60
2023-02-23T10:58:27.667Z,13.90
2023-02-23T10:59:27.591Z,13.50
2023-02-23T11:00:27.931Z,13.70
2023-02-23T11:01:27.710Z,14.00
2023-02-23T11:02:27.652Z,13.50
2023-02-23T11:03:27.681Z,13.70
2023-02-23T11:04:27.609Z,13.50
2023-02-23T11:05:27.218Z,13.60
2023-02-23T11:06:27.619Z,13.90
2023-02-23T11:07:27.744Z,13.80
2023-02-23T11:08:27.387Z,13.70
2023-02-23T11:09:43.265Z,14.30
2023-02-23T11:10:28.151Z,14.40
2023-02-23T11:11:27.471Z,13.80
2023-02-23T11:12:27.416Z,13.50
2023-02-23T11:13:27.442Z,13.70
2023-02-23T11:14:27.588Z,14.20
2023-02-23T11:15:38.896Z,14.10
2023-02-23T11:16:28.102Z,13.70
2023-02-23T11:17:27.654Z,14.00
2023-02-23T11:18:27.481Z,13.80
2023-02-23T11:19:27.841Z,14.20
2023-02-23T11:20:27.055Z,14.00
2023-02-23T11:21:27.027Z,13.90
2023-02-23T11:22:27.082Z,13.90
2023-02-23T11:23:27.050Z,13.90
2023-02-23T11:24:27.044Z,13.80
2023-02-23T11:25:26.989Z,14.10
2023-02-23T11:26:27.006Z,14.10
2023-02-23T11:27:26.980Z,13.70
2023-02-23T11:28:27.165Z,14.90
2023-02-23T11:29:26.937Z,14.70
2023-02-23T11:30:27.038Z,13.80
2023-02-23T11:31:26.962Z,13.70
2023-02-23T11:32:27.101Z,13.50
2023-02-23T11:33:26.910Z,14.40
2023-02-23T11:34:26.880Z,14.00
2023-02-23T11:35:26.870Z,14.10
2023-02-23T11:36:26.879Z,13.70
2023-02-23T11:37:26.845Z,13.60
2023-02-23T11:38:26.839Z,14.30
2023-02-23T11:39:26.880Z,14.10
2023-02-23T11:40:26.835Z,13.80
2023-02-23T11:41:26.820Z,14.00
2023-02-23T11:42:26.797Z,14.70
2023-02-23T11:43:26.781Z,14.10
2023-02-23T11:44:26.766Z,13.70
2023-02-23T11:45:26.757Z,13.80
2023-02-23T11:46:26.882Z,14.60
2023-02-23T11:47:26.736Z,13.30
2023-02-23T11:48:26.737Z,14.10
2023-02-23T11:49:26.717Z,13.60
2023-02-23T11:50:26.709Z,14.10
2023-02-23T11:51:26.693Z,14.10
2023-02-23T11:52:26.678Z,14.00
2023-02-23T11:53:26.695Z,13.80
2023-02-23T11:54:26.662Z,13.60
2023-02-23T11:55:26.650Z,14.00
2023-02-23T11:56:26.672Z,14.00
2023-02-23T11:57:26.624Z,13.50
2023-02-23T11:58:26.625Z,13.90
2023-02-23T11:59:26.613Z,14.20
2023-02-23T12:00:26.790Z,13.40
2023-02-23T12:01:26.620Z,14.00
2023-02-23T12:02:26.581Z,14.20
2023-02-23T12:03:26.572Z,13.20
2023-02-23T12:04:26.565Z,13.10
2023-02-23T12:05:26.545Z,13.60
2023-02-23T12:06:26.555Z,14.50
2023-02-23T12:07:26.518Z,13.50
2023-02-23T12:08:26.526Z,13.70
2023-02-23T12:09:26.502Z,13.50
2023-02-23T12:10:26.532Z,14.00
2023-02-23T12:11:26.474Z,13.40
2023-02-23T12:12:26.479Z,14.00
2023-02-23T12:13:26.478Z,13.60
2023-02-23T12:14:26.440Z,13.30
2023-02-23T12:15:26.431Z,13.40
2023-02-23T12:16:26.499Z,13.60
2023-02-23T12:17:26.436Z,13.20
2023-02-23T12:18:26.419Z,12.90
2023-02-23T12:19:26.436Z,13.50
2023-02-23T12:20:26.393Z,13.60
2023-02-23T12:21:26.376Z,13.60
2023-02-23T12:22:26.360Z,14.10
2023-02-23T12:23:26.349Z,14.50
2023-02-23T12:24:26.358Z,13.60
2023-02-23T12:25:26.340Z,14.20
2023-02-23T12:26:26.319Z,14.50
2023-02-23T12:27:26.303Z,13.70
2023-02-23T12:28:26.318Z,13.90
2023-02-23T12:29:26.322Z,13.50
2023-02-23T12:30:26.349Z,14.10
2023-02-23T12:31:26.303Z,13.40
2023-02-23T12:32:26.436Z,13.40
2023-02-23T12:33:26.232Z,13.90
2023-02-23T12:34:26.274Z,13.30
2023-02-23T12:35:26.213Z,13.90
2023-02-23T12:36:26.237Z,13.70
2023-02-23T12:37:26.192Z,13.60
2023-02-23T12:38:26.185Z,14.40
2023-02-23T12:39:26.183Z,13.50
2023-02-23T12:40:26.152Z,13.20
2023-02-23T12:41:26.145Z,13.90
2023-02-23T12:42:26.134Z,13.60
2023-02-23T12:43:26.158Z,13.60
2023-02-23T12:44:26.148Z,13.50
2023-02-23T12:45:26.100Z,15.20
2023-02-23T12:46:26.188Z,13.40
2023-02-23T12:47:26.111Z,13.40
2023-02-23T12:48:26.074Z,13.10
2023-02-23T12:49:26.082Z,13.70
2023-02-23T12:50:26.047Z,13.80
2023-02-23T12:51:26.040Z,13.20
2023-02-23T12:52:26.022Z,13.40